createdAt,value
2023-03-15T07:52:26.931Z,500.00
2023-03-15T08:00:26.917Z,400.00
2023-03-15T08:04:25.912Z,400.00
2023-03-15T08:08:25.479Z,400.00
2023-03-15T08:12:24.904Z,400.00
2023-03-15T08:16:23.886Z,400.00
2023-03-15T08:20:23.894Z,400.00
2023-03-15T08:24:22.499Z,470.00
2023-03-15T08:28:21.919Z,502.00
2023-03-15T08:32:20.961Z,500.00
2023-03-15T08:36:20.465Z,501.00
2023-03-15T08:40:19.984Z,511.00
2023-03-15T08:44:18.989Z,500.00
2023-03-15T08:48:19.433Z,516.00
2023-03-15T08:52:18.333Z,508.00
2023-03-15T08:56:16.980Z,532.00
2023-03-15T09:00:16.439Z,537.00
2023-03-15T09:04:15.992Z,552.00
2023-03-15T09:08:14.926Z,518.00
2023-03-15T09:12:14.451Z,550.00
2023-03-15T09:16:13.926Z,500.00
2023-03-15T09:20:12.942Z,534.00
2023-03-15T09:24:12.433Z,543.00
2023-03-15T09:28:11.965Z,497.00
2023-03-15T09:32:11.342Z,562.00
2023-03-15T09:36:10.453Z,500.00
2023-03-15T09:40:09.475Z,517.00
2023-03-15T09:44:08.973Z,501.00
2023-03-15T09:48:08.448Z,540.00
2023-03-15T09:52:07.955Z,587.00
2023-03-15T09:56:06.951Z,495.00
2023-03-15T10:00:06.480Z,590.00
2023-03-15T10:04:06.023Z,484.00
2023-03-15T10:08:05.488Z,586.00
2023-03-15T10:12:04.957Z,553.00
2023-03-15T10:16:04.047Z,682.00
2023-03-15T10:20:03.495Z,466.00
2023-03-15T10:24:02.962Z,508.00
2023-03-15T10:28:02.479Z,497.00
2023-03-15T10:32:02.073Z,733.00
2023-03-15T10:36:11.006Z,1195.00
2023-03-15T10:40:00.964Z,727.00
2023-03-15T10:43:59.879Z,557.00
2023-03-15T10:48:00.808Z,578.00
2023-03-15T10:51:58.970Z,534.00
2023-03-15T10:55:57.972Z,604.00
2023-03-15T10:59:57.471Z,990.00
2023-03-15T11:03:56.999Z,1072.00
2023-03-15T11:07:55.876Z,1402.00
2023-03-15T11:11:55.479Z,1534.00
2023-03-15T11:15:55.074Z,1596.00
2023-03-15T11:19:54.505Z,1631.00
2023-03-15T11:23:53.988Z,1758.00
2023-03-15T11:27:53.503Z,1655.00
2023-03-15T11:31:52.945Z,1432.00
2023-03-15T11:35:52.561Z,1185.00
2023-03-15T11:39:58.824Z,954.00
2023-03-15T11:43:51.491Z,786.00
2023-03-15T11:47:50.502Z,735.00
2023-03-15T11:51:50.016Z,692.00
2023-03-15T11:55:49.505Z,829.00
2023-03-15T11:59:49.010Z,793.00
2023-03-15T12:03:47.995Z,787.00
2023-03-15T12:07:47.273Z,723.00
2023-03-15T12:11:47.003Z,867.00
2023-03-15T12:15:46.007Z,2447.00
2023-03-15T12:19:45.501Z,4012.00
2023-03-15T12:23:45.040Z,3576.00
2023-03-15T12:27:44.505Z,3245.00
2023-03-15T12:31:44.004Z,2685.00
2023-03-15T12:35:43.548Z,2387.00
2023-03-15T12:39:42.536Z,2013.00
2023-03-15T12:43:41.816Z,1541.00
2023-03-15T12:47:41.158Z,1377.00
2023-03-15T12:51:40.604Z,1208.00
2023-03-15T12:55:40.031Z,946.00
2023-03-15T12:59:39.548Z,666.00
2023-03-15T13:03:38.675Z,582.00
2023-03-15T13:07:50.604Z,579.00
2023-03-15T13:11:37.644Z,544.00
2023-03-15T13:15:38.481Z,577.00
2023-03-15T13:19:36.095Z,673.00
2023-03-15T13:23:35.519Z,953.00
2023-03-15T13:27:34.778Z,1023.00
2023-03-15T13:31:34.186Z,1138.00
2023-03-15T13:35:33.603Z,1221.00
2023-03-15T13:39:33.001Z,1385.00
2023-03-15T13:43:32.581Z,1514.00
2023-03-15T13:47:32.178Z,1539.00
2023-03-15T13:51:31.536Z,1611.00
2023-03-15T13:55:31.064Z,1697.00
2023-03-15T13:59:30.137Z,1634.00
2023-03-15T14:03:30.033Z,1545.00
2023-03-15T14:07:29.556Z,1455.00
2023-03-15T14:11:29.083Z,1408.00
2023-03-15T14:15:28.567Z,1524.00
2023-03-15T14:19:28.049Z,1388.00
2023-03-15T14:23:27.319Z,1365.00
2023-03-15T14:27:26.065Z,1388.00
2023-03-15T14:31:26.268Z,1455.00
2023-03-15T14:35:26.055Z,1472.00
2023-03-15T14:39:25.556Z,1452.00
2023-03-15T14:43:24.558Z,1426.00
2023-03-15T14:47:23.581Z,1351.00
2023-03-15T14:51:22.963Z,1289.00
2023-03-15T14:55:22.567Z,1190.00
2023-03-15T14:59:22.057Z,1165.00
2023-03-15T15:03:21.084Z,1298.00
2023-03-15T15:07:20.576Z,1305.00
2023-03-15T15:11:19.581Z,1184.00
2023-03-15T15:15:18.935Z,1572.00
2023-03-15T15:19:18.282Z,1844.00
2023-03-15T15:23:18.068Z,1705.00
2023-03-15T15:27:16.901Z,1598.00
2023-03-15T15:31:16.629Z,1510.00
2023-03-15T15:35:15.565Z,1450.00
2023-03-15T15:39:15.084Z,1395.00
2023-03-15T15:43:14.314Z,1349.00
2023-03-15T15:47:14.073Z,1333.00
2023-03-15T15:51:13.138Z,1304.00
2023-03-15T15:55:12.573Z,1326.00
2023-03-15T15:59:12.075Z,1193.00
2023-03-15T16:03:11.039Z,1125.00
2023-03-15T16:07:10.606Z,1184.00
2023-03-15T16:11:09.662Z,1113.00
2023-03-15T16:15:09.076Z,1123.00
2023-03-15T16:19:08.584Z,1262.00
2023-03-15T16:23:07.721Z,1328.00
2023-03-15T16:27:07.085Z,1411.00
2023-03-15T16:31:06.636Z,1522.00
2023-03-15T16:35:05.681Z,1578.00
2023-03-15T16:39:05.047Z,1634.00
2023-03-15T16:43:04.376Z,1697.00
2023-03-15T16:47:04.092Z,1758.00
2023-03-15T16:51:03.051Z,1820.00
2023-03-15T16:55:02.408Z,1881.00
2023-03-15T16:59:01.743Z,1928.00
2023-03-15T17:03:01.111Z,1958.00
2023-03-15T17:07:00.417Z,1999.00
2023-03-15T17:10:59.819Z,2033.00
2023-03-15T17:14:59.293Z,2051.00
2023-03-15T17:18:58.879Z,2104.00
2023-03-15T17:22:58.463Z,2099.00
2023-03-15T17:26:58.084Z,2135.00
2023-03-15T17:31:14.157Z,2139.00
2023-03-15T17:34:56.735Z,2162.00
2023-03-15T17:38:56.128Z,2178.00
2023-03-15T17:42:55.396Z,2189.00
2023-03-15T17:46:54.754Z,2192.00
2023-03-15T17:50:54.040Z,2192.00
2023-03-15T17:54:53.389Z,2205.00
2023-03-15T17:58:52.767Z,2199.00
2023-03-15T18:02:56.623Z,2204.00
2023-03-15T18:06:51.855Z,2215.00
2023-03-15T18:10:51.437Z,2210.00
2023-03-15T18:14:51.043Z,2209.00
2023-03-15T18:18:50.563Z,2211.00
2023-03-15T18:22:50.727Z,2210.00
2023-03-15T18:26:49.734Z,2203.00
2023-03-15T18:30:49.362Z,2200.00
2023-03-15T18:34:48.930Z,2202.00
2023-03-15T18:38:48.271Z,2195.00
2023-03-15T18:42:47.590Z,2199.00
2023-03-15T18:46:46.935Z,2195.00
2023-03-15T18:50:46.238Z,2188.00
2023-03-15T18:54:45.570Z,2173.00
2023-03-15T18:58:44.908Z,2180.00
2023-03-15T19:02:44.401Z,2171.00
2023-03-15T19:06:43.831Z,2164.00
2023-03-15T19:10:43.469Z,2158.00
2023-03-15T19:14:42.754Z,2159.00
2023-03-15T19:18:42.102Z,2145.00
2023-03-15T19:22:41.411Z,2145.00
2023-03-15T19:26:40.705Z,2128.00
2023-03-15T19:30:40.114Z,2125.00
2023-03-15T19:34:39.382Z,2119.00
2023-03-15T19:38:38.872Z,2108.00
2023-03-15T19:42:38.197Z,2098.00
2023-03-15T19:46:37.570Z,2097.00
2023-03-15T19:50:36.865Z,2086.00
2023-03-15T19:54:36.169Z,2082.00
2023-03-15T19:58:35.501Z,2069.00
2023-03-15T20:02:34.818Z,2089.00
2023-03-15T20:06:34.417Z,2065.00
2023-03-15T20:10:33.711Z,2063.00
2023-03-15T20:14:33.045Z,2063.00
2023-03-15T20:18:32.411Z,2070.00
2023-03-15T20:22:31.752Z,2040.00
2023-03-15T20:26:31.125Z,2041.00
2023-03-15T20:30:31.153Z,2030.00
2023-03-15T20:34:29.850Z,2025.00
2023-03-15T20:38:29.216Z,2021.00
2023-03-15T20:42:28.523Z,2014.00
2023-03-15T20:46:27.885Z,2007.00
2023-03-15T20:50:27.206Z,2014.00
2023-03-15T20:54:26.577Z,2001.00
2023-03-15T20:58:25.887Z,1997.00
2023-03-15T21:02:25.414Z,1986.00
2023-03-15T21:06:24.742Z,1982.00
2023-03-15T21:10:24.590Z,1977.00
2023-03-15T21:14:23.404Z,1969.00
2023-03-15T21:18:22.721Z,1978.00
2023-03-15T21:22:22.188Z,1960.00
2023-03-15T21:26:21.789Z,1972.00
2023-03-15T21:30:21.660Z,1949.00
2023-03-15T21:34:20.857Z,1948.00
2023-03-15T21:38:20.185Z,1936.00
2023-03-15T21:42:19.547Z,1941.00
2023-03-15T21:46:18.990Z,1920.00
2023-03-15T21:50:18.172Z,1919.00
2023-03-15T21:54:17.486Z,1917.00
2023-03-15T21:58:16.843Z,1907.00
2023-03-15T22:02:16.150Z,1902.00
2023-03-15T22:06:15.625Z,1895.00
2023-03-15T22:10:15.173Z,1901.00
2023-03-15T22:14:14.775Z,1879.00
2023-03-15T22:18:14.100Z,1880.00
2023-03-15T22:22:13.424Z,1869.00
2023-03-15T22:26:12.772Z,1861.00
2023-03-15T22:30:12.100Z,1852.00
2023-03-15T22:34:11.406Z,1858.00
2023-03-15T22:38:10.747Z,1836.00
2023-03-15T22:42:10.073Z,1838.00
2023-03-15T22:46:09.672Z,1842.00
2023-03-15T22:50:08.952Z,1827.00
2023-03-15T22:54:08.256Z,1831.00
2023-03-15T22:58:07.587Z,1816.00
2023-03-15T23:02:06.940Z,1810.00
2023-03-15T23:06:06.256Z,1813.00
2023-03-15T23:10:05.597Z,1809.00
2023-03-15T23:14:05.051Z,1804.00
2023-03-15T23:18:04.666Z,1791.00
2023-03-15T23:22:03.978Z,1783.00
2023-03-15T23:26:03.348Z,1789.00
2023-03-15T23:30:02.660Z,1779.00
2023-03-15T23:34:02.049Z,1774.00
2023-03-15T23:38:01.383Z,1764.00
2023-03-15T23:42:00.733Z,1760.00
2023-03-15T23:46:00.298Z,1750.00
2023-03-15T23:50:00.197Z,1750.00
2023-03-15T23:53:59.197Z,1738.00
2023-03-15T23:57:58.524Z,1736.00
